createdAt,value
2022-10-25T00:04:03.825Z,15.85
2022-10-25T00:09:16.135Z,15.81
2022-10-25T00:14:30.330Z,15.79
2022-10-25T00:19:42.691Z,15.77
2022-10-25T00:24:55.118Z,15.73
2022-10-25T00:30:07.481Z,15.52
2022-10-25T00:35:20.332Z,15.43
2022-10-25T00:40:32.646Z,15.45
2022-10-25T00:45:45.060Z,15.47
2022-10-25T00:50:57.412Z,15.48
2022-10-25T00:56:09.823Z,15.48
2022-10-25T01:01:22.243Z,15.45
2022-10-25T01:06:34.283Z,15.39
2022-10-25T01:11:46.472Z,15.33
2022-10-25T01:16:58.887Z,15.3
2022-10-25T01:22:11.266Z,15.32
2022-10-25T01:27:23.507Z,15.3
2022-10-25T01:32:35.751Z,15.33
2022-10-25T01:37:48.575Z,15.27
2022-10-25T01:43:00.675Z,15.21
2022-10-25T01:48:12.941Z,15.25
2022-10-25T01:53:25.276Z,15.27
2022-10-25T01:58:37.589Z,15.24
2022-10-25T02:03:49.896Z,15.03
2022-10-25T02:09:02.119Z,14.87
2022-10-25T02:14:14.654Z,14.85
2022-10-25T02:19:27.033Z,14.85
2022-10-25T02:24:39.404Z,14.82
2022-10-25T02:29:51.629Z,14.8
2022-10-25T02:35:04.013Z,14.82
2022-10-25T02:40:16.211Z,14.83
2022-10-25T02:45:28.496Z,14.86
2022-10-25T02:50:40.825Z,14.92
2022-10-25T02:55:52.974Z,14.86
2022-10-25T03:01:05.443Z,14.84
2022-10-25T03:06:17.818Z,14.83
2022-10-25T03:11:30.389Z,14.83
2022-10-25T03:16:43.291Z,14.83
2022-10-25T03:21:55.554Z,14.87
2022-10-25T03:27:07.831Z,14.86
2022-10-25T03:32:20.355Z,14.84
2022-10-25T03:37:32.452Z,14.8
2022-10-25T03:42:45.211Z,14.84
2022-10-25T03:47:57.638Z,14.87
2022-10-25T03:53:09.933Z,14.91
2022-10-25T03:58:22.258Z,14.97
2022-10-25T04:03:34.576Z,14.95
2022-10-25T04:08:47.097Z,14.93
2022-10-25T04:13:59.531Z,14.85
2022-10-25T04:19:11.810Z,14.78
2022-10-25T04:24:23.956Z,14.73
2022-10-25T04:29:36.118Z,14.69
2022-10-25T04:34:48.509Z,14.71
2022-10-25T04:40:00.828Z,14.75
2022-10-25T04:45:12.985Z,14.82
2022-10-25T04:50:25.167Z,14.84
2022-10-25T04:55:37.593Z,14.83
2022-10-25T05:00:49.744Z,14.88
2022-10-25T05:06:02.083Z,14.93
2022-10-25T05:11:14.372Z,14.98
2022-10-25T05:16:26.793Z,15.01
2022-10-25T05:21:39.373Z,15.03
2022-10-25T05:26:51.748Z,15.02
2022-10-25T05:32:04.029Z,14.95
2022-10-25T05:37:16.303Z,14.86
2022-10-25T05:42:28.612Z,14.75
2022-10-25T05:47:40.758Z,14.6
2022-10-25T05:52:53.050Z,14.53
2022-10-25T05:58:05.200Z,14.47
2022-10-25T06:03:17.532Z,14.46
2022-10-25T06:08:29.679Z,14.45
2022-10-25T06:13:42.134Z,14.45
2022-10-25T06:18:54.342Z,14.5
2022-10-25T06:24:06.684Z,14.54
2022-10-25T06:29:19.015Z,14.53
2022-10-25T06:34:31.253Z,14.5
2022-10-25T06:39:43.791Z,14.53
2022-10-25T06:44:56.061Z,14.56
2022-10-25T06:55:20.725Z,14.63
2022-10-25T07:00:33.030Z,14.68
2022-10-25T07:05:45.505Z,14.8
2022-10-25T07:16:10.487Z,14.9
2022-10-25T07:21:22.898Z,15
2022-10-25T07:26:35.275Z,14.97
2022-10-25T07:31:47.579Z,14.93
2022-10-25T07:37:00.054Z,14.86
2022-10-25T07:42:12.392Z,14.88
2022-10-25T07:47:24.691Z,14.89
2022-10-25T07:52:36.928Z,14.93
2022-10-25T07:57:49.524Z,14.85
2022-10-25T08:03:01.405Z,14.78
2022-10-25T08:13:26.045Z,14.76
2022-10-25T08:18:38.382Z,14.7
2022-10-25T08:23:50.726Z,14.7
2022-10-25T08:29:03.058Z,14.71
2022-10-25T08:34:15.282Z,14.78
2022-10-25T08:39:27.828Z,14.89
2022-10-25T08:44:45.927Z,14.97
2022-10-25T08:49:58.305Z,15.08
2022-10-25T08:55:10.603Z,15.1
2022-10-25T09:00:23.279Z,15.23
2022-10-25T09:05:35.465Z,15.36
2022-10-25T09:10:47.909Z,15.5
2022-10-25T09:16:00.235Z,15.55
2022-10-25T09:21:14.103Z,15.62
2022-10-25T09:26:24.667Z,15.64
2022-10-25T09:31:37.037Z,15.69
2022-10-25T09:36:49.309Z,15.91
2022-10-25T09:42:01.710Z,16.23
2022-10-25T09:47:13.972Z,16.33
2022-10-25T09:57:39.035Z,16.34
2022-10-25T10:02:51.857Z,16.37
2022-10-25T10:08:03.793Z,16.35
2022-10-25T10:13:16.076Z,16.33
2022-10-25T10:18:28.514Z,16.36
2022-10-25T10:23:40.631Z,16.37
2022-10-25T10:28:52.964Z,16.3
2022-10-25T10:34:05.267Z,16.3
2022-10-25T10:39:17.489Z,16.31
2022-10-25T10:44:30.018Z,16.27
2022-10-25T10:49:42.582Z,16.34
2022-10-25T10:54:55.016Z,16.43
2022-10-25T11:00:07.278Z,16.6
2022-10-25T11:05:19.943Z,16.8
2022-10-25T11:10:32.276Z,17.06
2022-10-25T11:15:44.972Z,17.43
2022-10-25T11:20:57.544Z,17.69
2022-10-25T11:26:09.746Z,17.57
2022-10-25T11:31:22.069Z,17.58
2022-10-25T11:36:34.619Z,17.5
2022-10-25T11:41:46.821Z,17.65
2022-10-25T11:46:59.250Z,17.99
2022-10-25T11:57:26.538Z,18.15
2022-10-25T12:02:39.041Z,18.48
2022-10-25T12:07:51.408Z,18.62
2022-10-25T12:13:03.592Z,19.02
2022-10-25T12:18:15.655Z,18.89
2022-10-25T12:23:28.076Z,18.98
2022-10-25T12:28:40.374Z,19.02
2022-10-25T12:33:52.731Z,18.67
2022-10-25T12:39:04.958Z,18.25
2022-10-25T12:44:16.978Z,18.06
2022-10-25T12:54:41.394Z,17.75
2022-10-25T12:59:53.752Z,18.28
2022-10-25T13:11:34.284Z,19.31
2022-10-25T13:16:46.344Z,18.79
2022-10-25T13:21:58.468Z,18.46
2022-10-25T13:27:10.647Z,17.96
2022-10-25T13:32:22.702Z,17.64
2022-10-25T13:37:35.145Z,17.33
2022-10-25T13:42:47.859Z,17.17
2022-10-25T13:47:59.763Z,17.01
2022-10-25T13:53:12.174Z,16.84
2022-10-25T13:58:31.247Z,16.8
2022-10-25T14:03:39.782Z,16.75
2022-10-25T14:08:52.143Z,16.77
2022-10-25T14:14:04.477Z,16.7
2022-10-25T14:19:16.988Z,16.61
2022-10-25T14:24:29.315Z,16.64
2022-10-25T14:29:41.583Z,16.59
2022-10-25T14:34:54.311Z,17.07
2022-10-25T14:40:06.848Z,17.49
2022-10-25T14:45:19.046Z,17.26
2022-10-25T14:55:43.511Z,17.01
2022-10-25T15:00:56.146Z,16.77
2022-10-25T15:06:08.163Z,16.7
2022-10-25T15:11:20.428Z,16.64
2022-10-25T15:16:33.196Z,16.82
2022-10-25T15:21:45.683Z,16.84
2022-10-25T15:26:58.208Z,16.64
2022-10-25T15:32:10.757Z,16.45
2022-10-25T15:37:23.025Z,16.41
2022-10-25T15:42:35.250Z,16.41
2022-10-25T15:47:47.741Z,16.29
2022-10-25T15:53:00.011Z,16.25
2022-10-25T15:58:12.466Z,16.18
2022-10-25T16:03:24.826Z,16.1
2022-10-25T16:13:49.325Z,15.92
2022-10-25T16:19:03.415Z,15.74
2022-10-25T16:24:13.912Z,15.59
2022-10-25T16:29:26.166Z,15.49
2022-10-25T16:34:38.459Z,15.42
2022-10-25T16:45:03.000Z,15.23
2022-10-25T16:50:15.527Z,15.25
2022-10-25T16:55:27.926Z,15.35
2022-10-25T17:00:40.369Z,15.39
2022-10-25T17:05:52.704Z,15.3
2022-10-25T17:11:04.889Z,15.19
2022-10-25T17:16:17.269Z,14.98
2022-10-25T17:21:29.238Z,14.73
2022-10-25T17:26:41.445Z,14.71
2022-10-25T17:31:53.976Z,14.7
2022-10-25T17:37:06.418Z,14.71
2022-10-25T17:42:18.814Z,14.75
2022-10-25T17:47:31.135Z,14.71
2022-10-25T17:52:43.390Z,14.67
2022-10-25T17:57:55.578Z,14.62
2022-10-25T18:03:07.905Z,14.59
2022-10-25T18:08:20.724Z,14.43
2022-10-25T18:13:33.287Z,14.24
2022-10-25T18:18:45.597Z,14.07
2022-10-25T18:23:57.840Z,14.02
2022-10-25T18:29:10.526Z,13.94
2022-10-25T18:34:22.981Z,13.78
2022-10-25T18:39:35.188Z,13.66
2022-10-25T18:44:47.522Z,13.64
2022-10-25T18:49:59.691Z,13.64
2022-10-25T18:55:12.172Z,13.55
2022-10-25T19:00:24.503Z,13.47
2022-10-25T19:05:36.820Z,13.48
2022-10-25T19:10:49.161Z,13.57
2022-10-25T19:16:01.778Z,13.74
2022-10-25T19:21:14.087Z,13.87
2022-10-25T19:26:26.561Z,14
2022-10-25T19:31:39.130Z,14.15
2022-10-25T19:36:51.473Z,14.24
2022-10-25T19:42:03.815Z,14.25
2022-10-25T19:47:16.022Z,14.27
2022-10-25T19:52:28.575Z,14.27
2022-10-25T19:57:40.793Z,14.21
2022-10-25T20:02:53.083Z,14.21
2022-10-25T20:08:05.280Z,14.21
2022-10-25T20:13:17.755Z,14.17
2022-10-25T20:18:30.058Z,14.03
2022-10-25T20:23:42.266Z,13.74
2022-10-25T20:28:54.538Z,13.59
2022-10-25T20:34:06.825Z,13.41
2022-10-25T20:39:19.047Z,13.18
2022-10-25T20:44:31.258Z,13.01
2022-10-25T20:49:43.488Z,12.91
2022-10-25T21:00:08.221Z,12.66
2022-10-25T21:05:20.754Z,12.63
2022-10-25T21:10:33.269Z,12.59
2022-10-25T21:15:45.589Z,12.46
2022-10-25T21:20:57.939Z,12.42
2022-10-25T21:26:10.154Z,12.34
2022-10-25T21:31:22.424Z,12.27
2022-10-25T21:36:34.811Z,12.28
2022-10-25T21:41:47.241Z,12.47
2022-10-25T21:46:59.532Z,12.66
2022-10-25T21:52:11.878Z,12.6
2022-10-25T21:57:24.294Z,12.45
2022-10-25T22:02:36.796Z,12.21
2022-10-25T22:07:49.030Z,12.06
2022-10-25T22:13:01.347Z,11.99
2022-10-25T22:18:13.628Z,11.95
2022-10-25T22:23:25.842Z,11.94
2022-10-25T22:28:39.805Z,11.82
2022-10-25T22:33:50.606Z,11.76
2022-10-25T22:39:02.944Z,11.72
2022-10-25T22:44:15.296Z,11.63
2022-10-25T22:49:27.672Z,11.58
2022-10-25T22:54:39.930Z,11.61
2022-10-25T22:59:52.316Z,11.62
2022-10-25T23:05:04.497Z,11.64
2022-10-25T23:10:16.826Z,11.62
2022-10-25T23:15:29.244Z,11.63
2022-10-25T23:20:41.598Z,11.7
2022-10-25T23:25:54.057Z,11.83
2022-10-25T23:31:06.480Z,11.98
2022-10-25T23:36:19.181Z,12.14
2022-10-25T23:41:31.655Z,12.26
2022-10-25T23:46:44.137Z,12.36
2022-10-25T23:51:56.345Z,12.31
2022-10-25T23:57:08.665Z,12.28
